sensor_id;sensor_type;location;lat;lon;timestamp;P1;durP1;ratioP1;P2;durP2;ratioP2
2866;SDS011;1441;48.886;8.728;2023-03-31T00:01:47;5.80;;;1.63;;
2866;SDS011;1441;48.886;8.728;2023-03-31T00:04:12;3.60;;;1.00;;
2866;SDS011;1441;48.886;8.728;2023-03-31T00:06:38;2.80;;;0.90;;
2866;SDS011;1441;48.886;8.728;2023-03-31T00:09:10;4.03;;;1.20;;
2866;SDS011;1441;48.886;8.728;2023-03-31T00:11:37;2.20;;;0.97;;
2866;SDS011;1441;48.886;8.728;2023-03-31T00:14:03;4.40;;;0.90;;
2866;SDS011;1441;48.886;8.728;2023-03-31T00:16:31;4.50;;;1.40;;
2866;SDS011;1441;48.886;8.728;2023-03-31T00:18:57;4.20;;;1.23;;
2866;SDS011;1441;48.886;8.728;2023-03-31T00:21:25;3.60;;;1.00;;
2866;SDS011;1441;48.886;8.728;2023-03-31T00:24:07;3.40;;;1.50;;
2866;SDS011;1441;48.886;8.728;2023-03-31T00:26:35;5.53;;;1.20;;
2866;SDS011;1441;48.886;8.728;2023-03-31T00:29:01;5.80;;;0.93;;
2866;SDS011;1441;48.886;8.728;2023-03-31T00:31:31;1.90;;;0.87;;
2866;SDS011;1441;48.886;8.728;2023-03-31T00:33:57;4.73;;;1.30;;
2866;SDS011;1441;48.886;8.728;2023-03-31T00:36:23;8.23;;;2.10;;
2866;SDS011;1441;48.886;8.728;2023-03-31T00:38:53;4.57;;;1.20;;
2866;SDS011;1441;48.886;8.728;2023-03-31T00:41:23;8.33;;;1.30;;
2866;SDS011;1441;48.886;8.728;2023-03-31T00:46:44;2.70;;;1.07;;
2866;SDS011;1441;48.886;8.728;2023-03-31T00:49:36;7.10;;;2.03;;
2866;SDS011;1441;48.886;8.728;2023-03-31T00:54:46;7.20;;;1.27;;
2866;SDS011;1441;48.886;8.728;2023-03-31T00:57:15;9.80;;;1.53;;
2866;SDS011;1441;48.886;8.728;2023-03-31T00:59:42;6.20;;;1.63;;
2866;SDS011;1441;48.886;8.728;2023-03-31T01:02:13;13.13;;;1.10;;
2866;SDS011;1441;48.886;8.728;2023-03-31T01:04:43;4.83;;;1.00;;
2866;SDS011;1441;48.886;8.728;2023-03-31T01:07:19;6.77;;;1.33;;
2866;SDS011;1441;48.886;8.728;2023-03-31T01:09:50;11.27;;;1.70;;
2866;SDS011;1441;48.886;8.728;2023-03-31T01:12:20;9.50;;;2.20;;
2866;SDS011;1441;48.886;8.728;2023-03-31T01:14:47;6.10;;;1.60;;
2866;SDS011;1441;48.886;8.728;2023-03-31T01:17:14;4.87;;;1.30;;
2866;SDS011;1441;48.886;8.728;2023-03-31T01:36:34;5.30;;;1.10;;
2866;SDS011;1441;48.886;8.728;2023-03-31T01:39:26;5.10;;;1.10;;
2866;SDS011;1441;48.886;8.728;2023-03-31T01:55:47;3.53;;;1.33;;
2866;SDS011;1441;48.886;8.728;2023-03-31T01:58:25;2.17;;;1.00;;
2866;SDS011;1441;48.886;8.728;2023-03-31T02:03:53;5.30;;;1.20;;
2866;SDS011;1441;48.886;8.728;2023-03-31T02:06:28;4.80;;;1.10;;
2866;SDS011;1441;48.886;8.728;2023-03-31T02:09:00;4.20;;;1.27;;
2866;SDS011;1441;48.886;8.728;2023-03-31T02:11:28;5.17;;;1.20;;
2866;SDS011;1441;48.886;8.728;2023-03-31T02:13:56;2.23;;;0.90;;
2866;SDS011;1441;48.886;8.728;2023-03-31T02:16:25;3.00;;;0.90;;
2866;SDS011;1441;48.886;8.728;2023-03-31T02:18:55;1.47;;;0.90;;
2866;SDS011;1441;48.886;8.728;2023-03-31T02:21:27;7.80;;;1.73;;
2866;SDS011;1441;48.886;8.728;2023-03-31T02:23:55;1.90;;;1.27;;
2866;SDS011;1441;48.886;8.728;2023-03-31T02:26:26;3.37;;;1.73;;
2866;SDS011;1441;48.886;8.728;2023-03-31T02:28:55;2.07;;;0.97;;
2866;SDS011;1441;48.886;8.728;2023-03-31T02:33:58;3.83;;;1.13;;
2866;SDS011;1441;48.886;8.728;2023-03-31T02:36:25;1.53;;;1.00;;
2866;SDS011;1441;48.886;8.728;2023-03-31T02:38:52;1.63;;;0.87;;
2866;SDS011;1441;48.886;8.728;2023-03-31T02:41:22;7.23;;;1.60;;
2866;SDS011;1441;48.886;8.728;2023-03-31T02:43:47;2.67;;;0.90;;
2866;SDS011;1441;48.886;8.728;2023-03-31T02:46:13;9.40;;;0.90;;
2866;SDS011;1441;48.886;8.728;2023-03-31T02:48:40;2.07;;;1.60;;
2866;SDS011;1441;48.886;8.728;2023-03-31T03:05:25;4.47;;;1.10;;
2866;SDS011;1441;48.886;8.728;2023-03-31T03:08:09;1.63;;;1.10;;
2866;SDS011;1441;48.886;8.728;2023-03-31T03:13:29;6.30;;;1.93;;
2866;SDS011;1441;48.886;8.728;2023-03-31T03:16:11;1.53;;;1.20;;
2866;SDS011;1441;48.886;8.728;2023-03-31T03:18:43;1.83;;;1.27;;
2866;SDS011;1441;48.886;8.728;2023-03-31T03:21:29;3.97;;;1.43;;
2866;SDS011;1441;48.886;8.728;2023-03-31T03:23:55;1.83;;;1.20;;
2866;SDS011;1441;48.886;8.728;2023-03-31T03:26:21;4.73;;;1.30;;
2866;SDS011;1441;48.886;8.728;2023-03-31T03:28:48;3.40;;;1.20;;
2866;SDS011;1441;48.886;8.728;2023-03-31T03:31:14;4.50;;;1.93;;
2866;SDS011;1441;48.886;8.728;2023-03-31T03:33:41;3.83;;;1.50;;
2866;SDS011;1441;48.886;8.728;2023-03-31T03:36:07;6.90;;;1.60;;
2866;SDS011;1441;48.886;8.728;2023-03-31T03:38:33;3.87;;;1.40;;
2866;SDS011;1441;48.886;8.728;2023-03-31T03:40:58;5.60;;;1.60;;
2866;SDS011;1441;48.886;8.728;2023-03-31T03:43:24;4.67;;;1.50;;
2866;SDS011;1441;48.886;8.728;2023-03-31T03:45:50;9.00;;;1.90;;
2866;SDS011;1441;48.886;8.728;2023-03-31T03:48:16;6.00;;;2.23;;
2866;SDS011;1441;48.886;8.728;2023-03-31T03:50:43;7.33;;;2.00;;
2866;SDS011;1441;48.886;8.728;2023-03-31T03:53:10;2.63;;;1.90;;
2866;SDS011;1441;48.886;8.728;2023-03-31T03:55:36;7.30;;;2.10;;
2866;SDS011;1441;48.886;8.728;2023-03-31T03:58:02;3.53;;;1.50;;
2866;SDS011;1441;48.886;8.728;2023-03-31T04:00:27;7.30;;;1.87;;
2866;SDS011;1441;48.886;8.728;2023-03-31T04:02:53;3.43;;;1.90;;
2866;SDS011;1441;48.886;8.728;2023-03-31T04:05:18;2.73;;;1.40;;
2866;SDS011;1441;48.886;8.728;2023-03-31T04:07:44;4.03;;;2.20;;
2866;SDS011;1441;48.886;8.728;2023-03-31T04:10:10;8.57;;;2.10;;
2866;SDS011;1441;48.886;8.728;2023-03-31T04:12:35;3.80;;;1.80;;
2866;SDS011;1441;48.886;8.728;2023-03-31T04:15:01;3.23;;;1.70;;
2866;SDS011;1441;48.886;8.728;2023-03-31T04:17:27;4.30;;;1.83;;
2866;SDS011;1441;48.886;8.728;2023-03-31T04:19:59;2.60;;;1.70;;
2866;SDS011;1441;48.886;8.728;2023-03-31T04:22:30;6.20;;;1.90;;
2866;SDS011;1441;48.886;8.728;2023-03-31T04:25:05;8.57;;;2.30;;
2866;SDS011;1441;48.886;8.728;2023-03-31T04:27:41;5.33;;;1.90;;
2866;SDS011;1441;48.886;8.728;2023-03-31T04:30:13;5.60;;;2.10;;
2866;SDS011;1441;48.886;8.728;2023-03-31T04:32:53;2.93;;;1.90;;
2866;SDS011;1441;48.886;8.728;2023-03-31T04:35:20;7.70;;;2.20;;
2866;SDS011;1441;48.886;8.728;2023-03-31T04:37:47;3.77;;;1.90;;
2866;SDS011;1441;48.886;8.728;2023-03-31T04:40:14;4.30;;;1.97;;
2866;SDS011;1441;48.886;8.728;2023-03-31T04:42:40;4.33;;;1.60;;
2866;SDS011;1441;48.886;8.728;2023-03-31T04:45:07;5.33;;;2.37;;
2866;SDS011;1441;48.886;8.728;2023-03-31T04:47:33;3.80;;;2.40;;
2866;SDS011;1441;48.886;8.728;2023-03-31T04:49:59;2.70;;;2.10;;
2866;SDS011;1441;48.886;8.728;2023-03-31T04:52:24;6.90;;;2.67;;
2866;SDS011;1441;48.886;8.728;2023-03-31T04:54:50;8.00;;;3.30;;
2866;SDS011;1441;48.886;8.728;2023-03-31T04:57:15;7.83;;;3.03;;
2866;SDS011;1441;48.886;8.728;2023-03-31T04:59:41;11.03;;;2.60;;
2866;SDS011;1441;48.886;8.728;2023-03-31T05:02:06;4.43;;;2.57;;
2866;SDS011;1441;48.886;8.728;2023-03-31T05:04:32;6.23;;;3.00;;
2866;SDS011;1441;48.886;8.728;2023-03-31T05:06:58;6.93;;;2.40;;
2866;SDS011;1441;48.886;8.728;2023-03-31T05:09:23;6.60;;;2.63;;
2866;SDS011;1441;48.886;8.728;2023-03-31T05:11:49;8.10;;;2.87;;
2866;SDS011;1441;48.886;8.728;2023-03-31T05:14:14;6.03;;;3.30;;
2866;SDS011;1441;48.886;8.728;2023-03-31T05:16:40;10.40;;;3.23;;
2866;SDS011;1441;48.886;8.728;2023-03-31T05:19:06;6.73;;;3.23;;
2866;SDS011;1441;48.886;8.728;2023-03-31T05:21:31;6.70;;;3.30;;
2866;SDS011;1441;48.886;8.728;2023-03-31T05:23:57;5.70;;;3.10;;
2866;SDS011;1441;48.886;8.728;2023-03-31T05:26:23;5.53;;;3.27;;
2866;SDS011;1441;48.886;8.728;2023-03-31T05:28:51;6.63;;;3.40;;
2866;SDS011;1441;48.886;8.728;2023-03-31T05:31:18;6.47;;;3.40;;
2866;SDS011;1441;48.886;8.728;2023-03-31T05:33:43;5.60;;;3.40;;
2866;SDS011;1441;48.886;8.728;2023-03-31T05:36:10;7.00;;;3.00;;
2866;SDS011;1441;48.886;8.728;2023-03-31T05:38:38;9.27;;;3.90;;
2866;SDS011;1441;48.886;8.728;2023-03-31T05:41:04;9.07;;;3.57;;
2866;SDS011;1441;48.886;8.728;2023-03-31T05:43:31;4.30;;;2.70;;
2866;SDS011;1441;48.886;8.728;2023-03-31T05:45:56;4.20;;;3.13;;
2866;SDS011;1441;48.886;8.728;2023-03-31T05:48:22;7.40;;;4.10;;
2866;SDS011;1441;48.886;8.728;2023-03-31T05:50:47;5.03;;;2.80;;
2866;SDS011;1441;48.886;8.728;2023-03-31T05:53:13;9.33;;;2.97;;
2866;SDS011;1441;48.886;8.728;2023-03-31T05:55:39;4.23;;;3.10;;
2866;SDS011;1441;48.886;8.728;2023-03-31T05:58:04;6.30;;;3.13;;
2866;SDS011;1441;48.886;8.728;2023-03-31T06:00:30;6.97;;;3.50;;
2866;SDS011;1441;48.886;8.728;2023-03-31T06:02:56;14.33;;;3.93;;
2866;SDS011;1441;48.886;8.728;2023-03-31T06:05:23;3.77;;;3.00;;
2866;SDS011;1441;48.886;8.728;2023-03-31T06:07:50;5.50;;;3.60;;
2866;SDS011;1441;48.886;8.728;2023-03-31T06:10:17;3.50;;;3.20;;
2866;SDS011;1441;48.886;8.728;2023-03-31T06:12:43;3.03;;;2.83;;
2866;SDS011;1441;48.886;8.728;2023-03-31T06:15:09;7.70;;;3.60;;
2866;SDS011;1441;48.886;8.728;2023-03-31T06:17:35;6.13;;;3.03;;
2866;SDS011;1441;48.886;8.728;2023-03-31T06:20:00;7.70;;;4.10;;
2866;SDS011;1441;48.886;8.728;2023-03-31T06:22:26;4.87;;;3.63;;
2866;SDS011;1441;48.886;8.728;2023-03-31T06:24:52;9.60;;;4.23;;
2866;SDS011;1441;48.886;8.728;2023-03-31T06:27:17;2.50;;;2.10;;
2866;SDS011;1441;48.886;8.728;2023-03-31T06:29:43;11.00;;;2.93;;
2866;SDS011;1441;48.886;8.728;2023-03-31T06:32:08;6.03;;;3.40;;
2866;SDS011;1441;48.886;8.728;2023-03-31T06:34:34;5.37;;;3.30;;
2866;SDS011;1441;48.886;8.728;2023-03-31T06:37:00;11.23;;;3.73;;
2866;SDS011;1441;48.886;8.728;2023-03-31T06:39:25;6.83;;;4.13;;
2866;SDS011;1441;48.886;8.728;2023-03-31T06:41:51;11.03;;;3.70;;
2866;SDS011;1441;48.886;8.728;2023-03-31T06:44:16;5.10;;;3.30;;
2866;SDS011;1441;48.886;8.728;2023-03-31T06:46:43;11.50;;;3.63;;
2866;SDS011;1441;48.886;8.728;2023-03-31T06:49:09;7.97;;;2.93;;
2866;SDS011;1441;48.886;8.728;2023-03-31T06:51:34;3.43;;;2.63;;
2866;SDS011;1441;48.886;8.728;2023-03-31T06:54:00;4.83;;;3.20;;
2866;SDS011;1441;48.886;8.728;2023-03-31T06:56:25;3.80;;;2.67;;
2866;SDS011;1441;48.886;8.728;2023-03-31T06:58:52;7.17;;;3.00;;
2866;SDS011;1441;48.886;8.728;2023-03-31T07:01:17;3.83;;;2.13;;
2866;SDS011;1441;48.886;8.728;2023-03-31T07:03:43;3.17;;;2.03;;
2866;SDS011;1441;48.886;8.728;2023-03-31T07:06:08;2.33;;;1.60;;
2866;SDS011;1441;48.886;8.728;2023-03-31T07:08:34;1.80;;;1.57;;
2866;SDS011;1441;48.886;8.728;2023-03-31T07:11:00;3.00;;;1.70;;
2866;SDS011;1441;48.886;8.728;2023-03-31T07:13:26;1.57;;;1.47;;
2866;SDS011;1441;48.886;8.728;2023-03-31T07:15:52;4.57;;;1.30;;
2866;SDS011;1441;48.886;8.728;2023-03-31T07:18:18;2.30;;;1.20;;
2866;SDS011;1441;48.886;8.728;2023-03-31T07:20:48;2.70;;;1.00;;
2866;SDS011;1441;48.886;8.728;2023-03-31T07:23:14;1.40;;;0.83;;
2866;SDS011;1441;48.886;8.728;2023-03-31T07:25:40;3.53;;;1.20;;
2866;SDS011;1441;48.886;8.728;2023-03-31T07:28:05;2.17;;;1.07;;
2866;SDS011;1441;48.886;8.728;2023-03-31T07:30:31;0.90;;;0.67;;
2866;SDS011;1441;48.886;8.728;2023-03-31T07:32:57;1.03;;;0.97;;
2866;SDS011;1441;48.886;8.728;2023-03-31T07:35:23;2.03;;;1.00;;
2866;SDS011;1441;48.886;8.728;2023-03-31T07:37:49;2.87;;;0.80;;
2866;SDS011;1441;48.886;8.728;2023-03-31T07:40:23;1.80;;;0.80;;
2866;SDS011;1441;48.886;8.728;2023-03-31T07:42:50;1.13;;;0.70;;
2866;SDS011;1441;48.886;8.728;2023-03-31T07:45:17;0.93;;;0.70;;
2866;SDS011;1441;48.886;8.728;2023-03-31T07:47:46;1.00;;;1.00;;
2866;SDS011;1441;48.886;8.728;2023-03-31T07:50:13;2.43;;;1.20;;
2866;SDS011;1441;48.886;8.728;2023-03-31T07:52:40;2.50;;;0.90;;
2866;SDS011;1441;48.886;8.728;2023-03-31T07:55:06;3.30;;;0.83;;
2866;SDS011;1441;48.886;8.728;2023-03-31T07:57:33;1.37;;;0.77;;
2866;SDS011;1441;48.886;8.728;2023-03-31T08:00:00;4.37;;;1.40;;
2866;SDS011;1441;48.886;8.728;2023-03-31T08:02:31;5.47;;;1.63;;
2866;SDS011;1441;48.886;8.728;2023-03-31T08:04:56;2.80;;;1.23;;
2866;SDS011;1441;48.886;8.728;2023-03-31T08:07:22;3.30;;;1.37;;
2866;SDS011;1441;48.886;8.728;2023-03-31T08:09:47;5.23;;;1.50;;
2866;SDS011;1441;48.886;8.728;2023-03-31T08:12:13;16.03;;;1.67;;
2866;SDS011;1441;48.886;8.728;2023-03-31T08:14:39;4.10;;;1.53;;
2866;SDS011;1441;48.886;8.728;2023-03-31T08:17:05;6.10;;;1.23;;
2866;SDS011;1441;48.886;8.728;2023-03-31T08:19:30;5.70;;;1.30;;
2866;SDS011;1441;48.886;8.728;2023-03-31T08:21:56;3.60;;;1.03;;
2866;SDS011;1441;48.886;8.728;2023-03-31T08:24:21;3.50;;;1.63;;
2866;SDS011;1441;48.886;8.728;2023-03-31T08:26:47;3.30;;;1.27;;
2866;SDS011;1441;48.886;8.728;2023-03-31T08:29:13;5.70;;;1.57;;
2866;SDS011;1441;48.886;8.728;2023-03-31T08:31:38;4.47;;;1.23;;
2866;SDS011;1441;48.886;8.728;2023-03-31T08:34:04;5.27;;;1.40;;
2866;SDS011;1441;48.886;8.728;2023-03-31T08:36:30;2.87;;;1.47;;
2866;SDS011;1441;48.886;8.728;2023-03-31T08:38:57;3.50;;;1.20;;
2866;SDS011;1441;48.886;8.728;2023-03-31T08:43:54;3.80;;;1.73;;
2866;SDS011;1441;48.886;8.728;2023-03-31T08:46:22;4.37;;;1.60;;
2866;SDS011;1441;48.886;8.728;2023-03-31T08:48:53;2.43;;;1.40;;
2866;SDS011;1441;48.886;8.728;2023-03-31T08:51:25;7.53;;;1.70;;
2866;SDS011;1441;48.886;8.728;2023-03-31T08:53:57;3.43;;;1.10;;
2866;SDS011;1441;48.886;8.728;2023-03-31T08:56:24;1.80;;;0.90;;
2866;SDS011;1441;48.886;8.728;2023-03-31T08:58:51;3.47;;;1.20;;
2866;SDS011;1441;48.886;8.728;2023-03-31T09:09:52;5.93;;;1.17;;
2866;SDS011;1441;48.886;8.728;2023-03-31T09:15:03;2.07;;;1.20;;
2866;SDS011;1441;48.886;8.728;2023-03-31T09:17:39;1.90;;;0.90;;
2866;SDS011;1441;48.886;8.728;2023-03-31T09:20:11;1.43;;;0.80;;
2866;SDS011;1441;48.886;8.728;2023-03-31T09:22:42;2.60;;;0.90;;
2866;SDS011;1441;48.886;8.728;2023-03-31T09:25:14;3.43;;;1.10;;
2866;SDS011;1441;48.886;8.728;2023-03-31T09:27:46;3.60;;;1.60;;
2866;SDS011;1441;48.886;8.728;2023-03-31T09:30:23;4.63;;;1.23;;
2866;SDS011;1441;48.886;8.728;2023-03-31T09:32:51;3.40;;;1.20;;
2866;SDS011;1441;48.886;8.728;2023-03-31T09:35:24;7.13;;;1.37;;
2866;SDS011;1441;48.886;8.728;2023-03-31T09:37:51;8.13;;;1.10;;
2866;SDS011;1441;48.886;8.728;2023-03-31T09:40:19;4.47;;;1.27;;
2866;SDS011;1441;48.886;8.728;2023-03-31T09:42:47;4.00;;;1.70;;
2866;SDS011;1441;48.886;8.728;2023-03-31T09:45:20;8.87;;;2.03;;
2866;SDS011;1441;48.886;8.728;2023-03-31T09:47:47;4.13;;;1.30;;
2866;SDS011;1441;48.886;8.728;2023-03-31T09:50:16;3.60;;;1.33;;
2866;SDS011;1441;48.886;8.728;2023-03-31T09:52:43;3.90;;;1.37;;
2866;SDS011;1441;48.886;8.728;2023-03-31T09:55:23;10.40;;;1.60;;
2866;SDS011;1441;48.886;8.728;2023-03-31T09:57:53;4.23;;;1.47;;
2866;SDS011;1441;48.886;8.728;2023-03-31T10:00:20;1.93;;;1.00;;
2866;SDS011;1441;48.886;8.728;2023-03-31T10:07:50;6.03;;;1.57;;
2866;SDS011;1441;48.886;8.728;2023-03-31T10:10:25;5.30;;;1.20;;
2866;SDS011;1441;48.886;8.728;2023-03-31T10:12:55;2.80;;;0.90;;
2866;SDS011;1441;48.886;8.728;2023-03-31T10:15:29;2.57;;;1.17;;
2866;SDS011;1441;48.886;8.728;2023-03-31T10:17:56;6.83;;;0.77;;
2866;SDS011;1441;48.886;8.728;2023-03-31T10:20:33;6.13;;;1.23;;
2866;SDS011;1441;48.886;8.728;2023-03-31T10:23:03;1.57;;;0.73;;
2866;SDS011;1441;48.886;8.728;2023-03-31T10:25:41;3.87;;;1.00;;
2866;SDS011;1441;48.886;8.728;2023-03-31T10:28:11;5.10;;;1.53;;
2866;SDS011;1441;48.886;8.728;2023-03-31T10:30:41;3.07;;;0.90;;
2866;SDS011;1441;48.886;8.728;2023-03-31T10:33:25;1.07;;;0.80;;
2866;SDS011;1441;48.886;8.728;2023-03-31T10:36:14;5.77;;;1.27;;
2866;SDS011;1441;48.886;8.728;2023-03-31T10:38:48;6.60;;;1.40;;
2866;SDS011;1441;48.886;8.728;2023-03-31T10:41:19;3.00;;;1.17;;
2866;SDS011;1441;48.886;8.728;2023-03-31T10:43:53;4.30;;;1.30;;
2866;SDS011;1441;48.886;8.728;2023-03-31T10:46:38;2.13;;;1.10;;
2866;SDS011;1441;48.886;8.728;2023-03-31T10:49:14;4.87;;;1.20;;
2866;SDS011;1441;48.886;8.728;2023-03-31T10:51:51;5.37;;;1.10;;
2866;SDS011;1441;48.886;8.728;2023-03-31T10:54:21;8.53;;;1.50;;
2866;SDS011;1441;48.886;8.728;2023-03-31T10:56:50;3.87;;;1.23;;
2866;SDS011;1441;48.886;8.728;2023-03-31T11:05:14;3.23;;;0.70;;
2866;SDS011;1441;48.886;8.728;2023-03-31T11:10:35;0.80;;;0.73;;
2866;SDS011;1441;48.886;8.728;2023-03-31T11:13:07;3.50;;;0.60;;
2866;SDS011;1441;48.886;8.728;2023-03-31T11:18:13;1.00;;;0.47;;
2866;SDS011;1441;48.886;8.728;2023-03-31T11:29:16;1.33;;;0.50;;
2866;SDS011;1441;48.886;8.728;2023-03-31T11:42:56;2.30;;;0.80;;
2866;SDS011;1441;48.886;8.728;2023-03-31T11:45:43;1.23;;;0.50;;
2866;SDS011;1441;48.886;8.728;2023-03-31T11:48:21;0.60;;;0.40;;
2866;SDS011;1441;48.886;8.728;2023-03-31T11:50:55;1.27;;;0.40;;
2866;SDS011;1441;48.886;8.728;2023-03-31T11:53:24;1.37;;;0.53;;
2866;SDS011;1441;48.886;8.728;2023-03-31T11:55:55;1.83;;;0.63;;
2866;SDS011;1441;48.886;8.728;2023-03-31T11:58:28;2.63;;;0.60;;
2866;SDS011;1441;48.886;8.728;2023-03-31T12:03:51;3.83;;;0.80;;
2866;SDS011;1441;48.886;8.728;2023-03-31T12:06:32;2.10;;;0.87;;
2866;SDS011;1441;48.886;8.728;2023-03-31T12:09:06;1.37;;;0.70;;
2866;SDS011;1441;48.886;8.728;2023-03-31T12:14:47;3.17;;;0.70;;
2866;SDS011;1441;48.886;8.728;2023-03-31T12:17:30;1.83;;;1.07;;
2866;SDS011;1441;48.886;8.728;2023-03-31T12:19:58;2.93;;;0.50;;
2866;SDS011;1441;48.886;8.728;2023-03-31T12:22:36;1.97;;;0.70;;
2866;SDS011;1441;48.886;8.728;2023-03-31T12:25:10;0.70;;;0.60;;
2866;SDS011;1441;48.886;8.728;2023-03-31T12:27:38;3.50;;;0.70;;
2866;SDS011;1441;48.886;8.728;2023-03-31T12:30:09;4.60;;;0.83;;
2866;SDS011;1441;48.886;8.728;2023-03-31T12:33:05;3.50;;;0.70;;
2866;SDS011;1441;48.886;8.728;2023-03-31T12:38:22;3.07;;;1.00;;
2866;SDS011;1441;48.886;8.728;2023-03-31T12:52:37;7.27;;;1.53;;
2866;SDS011;1441;48.886;8.728;2023-03-31T12:57:52;2.03;;;0.77;;
2866;SDS011;1441;48.886;8.728;2023-03-31T13:08:56;1.53;;;0.50;;
2866;SDS011;1441;48.886;8.728;2023-03-31T13:14:05;2.63;;;0.50;;
2866;SDS011;1441;48.886;8.728;2023-03-31T13:16:46;2.47;;;0.90;;
2866;SDS011;1441;48.886;8.728;2023-03-31T13:19:32;2.87;;;0.40;;
2866;SDS011;1441;48.886;8.728;2023-03-31T13:21:59;0.77;;;0.40;;
2866;SDS011;1441;48.886;8.728;2023-03-31T13:24:27;1.60;;;0.60;;
2866;SDS011;1441;48.886;8.728;2023-03-31T13:26:55;1.80;;;0.40;;
2866;SDS011;1441;48.886;8.728;2023-03-31T13:29:39;1.23;;;0.60;;
2866;SDS011;1441;48.886;8.728;2023-03-31T13:34:55;1.90;;;0.50;;
2866;SDS011;1441;48.886;8.728;2023-03-31T13:37:31;1.17;;;0.50;;
2866;SDS011;1441;48.886;8.728;2023-03-31T13:48:48;1.00;;;0.63;;
2866;SDS011;1441;48.886;8.728;2023-03-31T13:54:30;0.67;;;0.40;;
2866;SDS011;1441;48.886;8.728;2023-03-31T14:05:43;3.53;;;0.77;;
2866;SDS011;1441;48.886;8.728;2023-03-31T14:08:18;0.67;;;0.60;;
2866;SDS011;1441;48.886;8.728;2023-03-31T14:10:55;3.67;;;1.30;;
2866;SDS011;1441;48.886;8.728;2023-03-31T14:16:36;2.20;;;0.80;;
2866;SDS011;1441;48.886;8.728;2023-03-31T14:21:57;1.63;;;0.77;;
2866;SDS011;1441;48.886;8.728;2023-03-31T14:24:57;2.07;;;0.60;;
2866;SDS011;1441;48.886;8.728;2023-03-31T14:30:27;1.33;;;0.60;;
2866;SDS011;1441;48.886;8.728;2023-03-31T14:38:43;3.60;;;0.60;;
2866;SDS011;1441;48.886;8.728;2023-03-31T14:41:14;1.37;;;0.60;;
2866;SDS011;1441;48.886;8.728;2023-03-31T14:43:53;1.30;;;0.50;;
2866;SDS011;1441;48.886;8.728;2023-03-31T14:46:20;1.03;;;0.40;;
2866;SDS011;1441;48.886;8.728;2023-03-31T14:48:47;1.57;;;0.60;;
2866;SDS011;1441;48.886;8.728;2023-03-31T14:51:15;4.03;;;0.63;;
2866;SDS011;1441;48.886;8.728;2023-03-31T14:53:56;3.03;;;0.60;;
2866;SDS011;1441;48.886;8.728;2023-03-31T14:56:33;0.80;;;0.50;;
2866;SDS011;1441;48.886;8.728;2023-03-31T14:59:03;4.37;;;0.50;;
2866;SDS011;1441;48.886;8.728;2023-03-31T15:01:31;1.63;;;0.90;;
2866;SDS011;1441;48.886;8.728;2023-03-31T15:04:00;5.07;;;0.60;;
2866;SDS011;1441;48.886;8.728;2023-03-31T15:06:30;1.37;;;0.60;;
2866;SDS011;1441;48.886;8.728;2023-03-31T15:08:59;3.27;;;0.63;;
2866;SDS011;1441;48.886;8.728;2023-03-31T15:11:27;1.10;;;0.57;;
2866;SDS011;1441;48.886;8.728;2023-03-31T15:13:54;1.90;;;0.70;;
2866;SDS011;1441;48.886;8.728;2023-03-31T15:16:32;1.03;;;0.60;;
2866;SDS011;1441;48.886;8.728;2023-03-31T15:19:16;0.80;;;0.53;;
2866;SDS011;1441;48.886;8.728;2023-03-31T15:21:55;2.93;;;0.80;;
2866;SDS011;1441;48.886;8.728;2023-03-31T15:24:29;1.63;;;0.80;;
2866;SDS011;1441;48.886;8.728;2023-03-31T15:32:01;1.57;;;0.90;;
2866;SDS011;1441;48.886;8.728;2023-03-31T15:34:31;6.20;;;0.60;;
2866;SDS011;1441;48.886;8.728;2023-03-31T15:36:59;1.73;;;0.80;;
2866;SDS011;1441;48.886;8.728;2023-03-31T15:39:26;2.40;;;0.80;;
2866;SDS011;1441;48.886;8.728;2023-03-31T15:41:56;2.60;;;0.90;;
2866;SDS011;1441;48.886;8.728;2023-03-31T15:47:50;2.60;;;0.67;;
2866;SDS011;1441;48.886;8.728;2023-03-31T15:50:19;2.10;;;0.70;;
2866;SDS011;1441;48.886;8.728;2023-03-31T15:52:50;3.80;;;0.60;;
2866;SDS011;1441;48.886;8.728;2023-03-31T15:55:29;2.30;;;0.60;;
2866;SDS011;1441;48.886;8.728;2023-03-31T15:58:00;0.97;;;0.60;;
2866;SDS011;1441;48.886;8.728;2023-03-31T16:03:04;2.43;;;0.87;;
2866;SDS011;1441;48.886;8.728;2023-03-31T16:08:21;3.40;;;0.80;;
2866;SDS011;1441;48.886;8.728;2023-03-31T16:10:58;0.73;;;0.60;;
2866;SDS011;1441;48.886;8.728;2023-03-31T16:13:31;0.83;;;0.60;;
2866;SDS011;1441;48.886;8.728;2023-03-31T16:15:58;1.60;;;0.63;;
2866;SDS011;1441;48.886;8.728;2023-03-31T16:18:38;1.90;;;0.67;;
2866;SDS011;1441;48.886;8.728;2023-03-31T16:21:07;2.10;;;0.60;;
2866;SDS011;1441;48.886;8.728;2023-03-31T16:23:34;0.40;;;0.40;;
2866;SDS011;1441;48.886;8.728;2023-03-31T16:26:05;1.47;;;0.40;;
2866;SDS011;1441;48.886;8.728;2023-03-31T16:28:32;1.57;;;0.60;;
2866;SDS011;1441;48.886;8.728;2023-03-31T16:31:00;2.43;;;1.47;;
2866;SDS011;1441;48.886;8.728;2023-03-31T16:33:26;1.60;;;0.63;;
2866;SDS011;1441;48.886;8.728;2023-03-31T16:36:15;1.37;;;0.50;;
2866;SDS011;1441;48.886;8.728;2023-03-31T16:38:41;0.53;;;0.50;;
2866;SDS011;1441;48.886;8.728;2023-03-31T16:41:07;1.00;;;0.50;;
2866;SDS011;1441;48.886;8.728;2023-03-31T16:43:32;3.70;;;0.50;;
2866;SDS011;1441;48.886;8.728;2023-03-31T16:45:59;1.50;;;0.50;;
2866;SDS011;1441;48.886;8.728;2023-03-31T16:48:27;0.90;;;0.50;;
2866;SDS011;1441;48.886;8.728;2023-03-31T16:50:56;2.40;;;0.50;;
2866;SDS011;1441;48.886;8.728;2023-03-31T16:53:25;3.03;;;0.60;;
2866;SDS011;1441;48.886;8.728;2023-03-31T16:55:53;3.13;;;0.60;;
2866;SDS011;1441;48.886;8.728;2023-03-31T16:58:19;1.43;;;0.63;;
2866;SDS011;1441;48.886;8.728;2023-03-31T17:00:47;1.60;;;0.60;;
2866;SDS011;1441;48.886;8.728;2023-03-31T17:03:13;5.70;;;1.37;;
2866;SDS011;1441;48.886;8.728;2023-03-31T17:05:41;2.07;;;0.67;;
2866;SDS011;1441;48.886;8.728;2023-03-31T17:08:09;3.03;;;0.80;;
2866;SDS011;1441;48.886;8.728;2023-03-31T17:10:36;1.93;;;0.50;;
2866;SDS011;1441;48.886;8.728;2023-03-31T17:13:03;4.57;;;1.63;;
2866;SDS011;1441;48.886;8.728;2023-03-31T17:15:29;2.20;;;0.80;;
2866;SDS011;1441;48.886;8.728;2023-03-31T17:17:55;4.00;;;1.17;;
2866;SDS011;1441;48.886;8.728;2023-03-31T17:20:22;4.80;;;1.27;;
2866;SDS011;1441;48.886;8.728;2023-03-31T17:22:48;2.63;;;1.00;;
2866;SDS011;1441;48.886;8.728;2023-03-31T17:25:14;7.27;;;1.37;;
2866;SDS011;1441;48.886;8.728;2023-03-31T17:27:40;2.37;;;1.33;;
2866;SDS011;1441;48.886;8.728;2023-03-31T17:30:06;1.00;;;0.70;;
2866;SDS011;1441;48.886;8.728;2023-03-31T17:32:32;1.87;;;0.60;;
2866;SDS011;1441;48.886;8.728;2023-03-31T17:34:58;1.57;;;1.10;;
2866;SDS011;1441;48.886;8.728;2023-03-31T17:37:24;3.03;;;0.83;;
2866;SDS011;1441;48.886;8.728;2023-03-31T17:39:49;1.00;;;0.50;;
2866;SDS011;1441;48.886;8.728;2023-03-31T17:42:15;2.47;;;0.60;;
2866;SDS011;1441;48.886;8.728;2023-03-31T17:44:43;2.70;;;1.30;;
2866;SDS011;1441;48.886;8.728;2023-03-31T17:47:10;2.57;;;0.60;;
2866;SDS011;1441;48.886;8.728;2023-03-31T17:49:35;1.20;;;0.60;;
2866;SDS011;1441;48.886;8.728;2023-03-31T17:52:02;1.93;;;0.50;;
2866;SDS011;1441;48.886;8.728;2023-03-31T17:54:27;1.83;;;0.70;;
2866;SDS011;1441;48.886;8.728;2023-03-31T17:56:53;1.20;;;0.70;;
2866;SDS011;1441;48.886;8.728;2023-03-31T18:02:40;2.50;;;1.03;;
2866;SDS011;1441;48.886;8.728;2023-03-31T18:05:06;4.60;;;1.03;;
2866;SDS011;1441;48.886;8.728;2023-03-31T18:07:33;8.60;;;0.80;;
2866;SDS011;1441;48.886;8.728;2023-03-31T18:10:00;1.10;;;0.80;;
2866;SDS011;1441;48.886;8.728;2023-03-31T18:12:26;0.80;;;0.70;;
2866;SDS011;1441;48.886;8.728;2023-03-31T18:14:53;1.77;;;0.60;;
2866;SDS011;1441;48.886;8.728;2023-03-31T18:17:19;0.80;;;0.60;;
2866;SDS011;1441;48.886;8.728;2023-03-31T18:19:45;3.77;;;1.23;;
2866;SDS011;1441;48.886;8.728;2023-03-31T18:22:11;2.00;;;1.20;;
2866;SDS011;1441;48.886;8.728;2023-03-31T18:24:36;3.20;;;0.87;;
2866;SDS011;1441;48.886;8.728;2023-03-31T18:27:03;3.30;;;0.80;;
2866;SDS011;1441;48.886;8.728;2023-03-31T18:29:29;1.70;;;0.90;;
2866;SDS011;1441;48.886;8.728;2023-03-31T18:31:55;2.93;;;0.80;;
2866;SDS011;1441;48.886;8.728;2023-03-31T18:34:21;4.20;;;0.80;;
2866;SDS011;1441;48.886;8.728;2023-03-31T18:36:47;1.60;;;1.20;;
2866;SDS011;1441;48.886;8.728;2023-03-31T18:39:12;1.90;;;0.63;;
2866;SDS011;1441;48.886;8.728;2023-03-31T18:41:39;4.67;;;1.23;;
2866;SDS011;1441;48.886;8.728;2023-03-31T18:44:09;1.77;;;1.00;;
2866;SDS011;1441;48.886;8.728;2023-03-31T18:46:35;1.83;;;1.10;;